Bellmore, Indiana
Current Conditions -  °F | °C
As of 9:15 AM on Saturday 20 Dec 2014 (Local Time) from K4I7 Reporting Station
Haze Haze  
Wind Chill: 28°   Ceiling: 3000
Heat Index: 28°   Visibility: 3mi
Dew Point: 25°   Wind: 0mph
Humidity: 86%   Direction: NA
Pressure: 30.29"   Gusts: NA
Location:  39.76°N, 87.11°W
Report Text: K4I7 201415Z AUTO 00000KT 3SM BR OVC030 M02/M04 A3029 RMK AO2
Loading
Personal Weather Stations






























Interactive Weather Map New forecast layout! Learn more

10-Day Weather Forecast

Advertisements
Track Severe Weather on mobile